sensor_id;sensor_type;location;lat;lon;timestamp;P1;durP1;ratioP1;P2;durP2;ratioP2
47259;SDS011;32999;52.412;4.890;2023-05-10T00:04:23;48.75;;;20.40;;
47259;SDS011;32999;52.412;4.890;2023-05-10T00:09:27;53.95;;;20.75;;
47259;SDS011;32999;52.412;4.890;2023-05-10T00:14:30;49.65;;;20.17;;
47259;SDS011;32999;52.412;4.890;2023-05-10T00:19:31;41.55;;;19.45;;
47259;SDS011;32999;52.412;4.890;2023-05-10T00:24:33;35.80;;;19.13;;
47259;SDS011;32999;52.412;4.890;2023-05-10T00:29:36;43.63;;;19.05;;
47259;SDS011;32999;52.412;4.890;2023-05-10T00:34:37;39.28;;;18.92;;
47259;SDS011;32999;52.412;4.890;2023-05-10T00:39:39;48.53;;;19.58;;
47259;SDS011;32999;52.412;4.890;2023-05-10T00:44:42;45.83;;;19.38;;
47259;SDS011;32999;52.412;4.890;2023-05-10T00:49:44;47.95;;;20.15;;
47259;SDS011;32999;52.412;4.890;2023-05-10T00:54:47;43.45;;;19.60;;
47259;SDS011;32999;52.412;4.890;2023-05-10T00:59:51;38.20;;;20.98;;
47259;SDS011;32999;52.412;4.890;2023-05-10T01:04:52;40.83;;;20.17;;
47259;SDS011;32999;52.412;4.890;2023-05-10T01:09:54;46.75;;;21.88;;
47259;SDS011;32999;52.412;4.890;2023-05-10T01:14:57;52.05;;;22.58;;
47259;SDS011;32999;52.412;4.890;2023-05-10T01:19:59;54.13;;;22.58;;
47259;SDS011;32999;52.412;4.890;2023-05-10T01:30:23;50.58;;;21.88;;
47259;SDS011;32999;52.412;4.890;2023-05-10T01:35:32;41.45;;;21.85;;
47259;SDS011;32999;52.412;4.890;2023-05-10T01:40:37;51.92;;;24.27;;
47259;SDS011;32999;52.412;4.890;2023-05-10T01:45:41;51.85;;;24.13;;
47259;SDS011;32999;52.412;4.890;2023-05-10T01:50:49;53.25;;;23.17;;
47259;SDS011;32999;52.412;4.890;2023-05-10T01:55:52;59.23;;;24.53;;
47259;SDS011;32999;52.412;4.890;2023-05-10T02:00:54;55.60;;;23.70;;
47259;SDS011;32999;52.412;4.890;2023-05-10T02:05:58;62.38;;;24.83;;
47259;SDS011;32999;52.412;4.890;2023-05-10T02:11:00;49.60;;;21.08;;
47259;SDS011;32999;52.412;4.890;2023-05-10T02:16:02;52.20;;;21.73;;
47259;SDS011;32999;52.412;4.890;2023-05-10T02:21:06;46.50;;;20.27;;
47259;SDS011;32999;52.412;4.890;2023-05-10T02:26:08;37.22;;;17.08;;
47259;SDS011;32999;52.412;4.890;2023-05-10T02:31:10;37.33;;;17.45;;
47259;SDS011;32999;52.412;4.890;2023-05-10T02:36:13;37.90;;;19.38;;
47259;SDS011;32999;52.412;4.890;2023-05-10T02:41:15;37.03;;;16.55;;
47259;SDS011;32999;52.412;4.890;2023-05-10T02:46:17;37.75;;;17.60;;
47259;SDS011;32999;52.412;4.890;2023-05-10T02:51:20;38.00;;;16.60;;
47259;SDS011;32999;52.412;4.890;2023-05-10T02:56:23;33.95;;;16.60;;
47259;SDS011;32999;52.412;4.890;2023-05-10T03:01:25;42.77;;;18.27;;
47259;SDS011;32999;52.412;4.890;2023-05-10T03:06:35;59.22;;;20.33;;
47259;SDS011;32999;52.412;4.890;2023-05-10T03:11:55;63.17;;;21.42;;
47259;SDS011;32999;52.412;4.890;2023-05-10T03:16:59;65.80;;;20.15;;
47259;SDS011;32999;52.412;4.890;2023-05-10T03:22:03;66.88;;;18.55;;
47259;SDS011;32999;52.412;4.890;2023-05-10T03:27:06;69.88;;;18.90;;
47259;SDS011;32999;52.412;4.890;2023-05-10T03:32:09;24.83;;;12.15;;
47259;SDS011;32999;52.412;4.890;2023-05-10T03:37:11;26.50;;;10.93;;
47259;SDS011;32999;52.412;4.890;2023-05-10T03:42:13;29.67;;;12.70;;
47259;SDS011;32999;52.412;4.890;2023-05-10T03:47:15;37.85;;;13.57;;
47259;SDS011;32999;52.412;4.890;2023-05-10T03:52:17;26.88;;;12.02;;
47259;SDS011;32999;52.412;4.890;2023-05-10T03:57:19;31.63;;;14.85;;
47259;SDS011;32999;52.412;4.890;2023-05-10T04:02:20;27.42;;;12.85;;
47259;SDS011;32999;52.412;4.890;2023-05-10T04:07:23;24.20;;;12.13;;
47259;SDS011;32999;52.412;4.890;2023-05-10T04:12:25;26.48;;;11.55;;
47259;SDS011;32999;52.412;4.890;2023-05-10T04:17:26;23.27;;;9.90;;
47259;SDS011;32999;52.412;4.890;2023-05-10T04:22:29;19.02;;;9.73;;
47259;SDS011;32999;52.412;4.890;2023-05-10T04:27:31;28.73;;;12.48;;
47259;SDS011;32999;52.412;4.890;2023-05-10T04:32:33;30.13;;;15.00;;
47259;SDS011;32999;52.412;4.890;2023-05-10T04:37:36;33.33;;;15.13;;
47259;SDS011;32999;52.412;4.890;2023-05-10T04:42:39;34.28;;;15.90;;
47259;SDS011;32999;52.412;4.890;2023-05-10T04:47:41;35.42;;;15.90;;
47259;SDS011;32999;52.412;4.890;2023-05-10T04:52:43;45.58;;;17.98;;
47259;SDS011;32999;52.412;4.890;2023-05-10T04:57:46;50.80;;;17.50;;
47259;SDS011;32999;52.412;4.890;2023-05-10T05:02:49;42.83;;;17.52;;
47259;SDS011;32999;52.412;4.890;2023-05-10T05:07:53;52.25;;;18.77;;
47259;SDS011;32999;52.412;4.890;2023-05-10T05:12:54;41.63;;;16.48;;
47259;SDS011;32999;52.412;4.890;2023-05-10T05:17:55;37.47;;;16.73;;
47259;SDS011;32999;52.412;4.890;2023-05-10T05:22:58;33.25;;;15.48;;
47259;SDS011;32999;52.412;4.890;2023-05-10T05:28:00;31.90;;;13.63;;
47259;SDS011;32999;52.412;4.890;2023-05-10T05:33:01;33.95;;;14.55;;
47259;SDS011;32999;52.412;4.890;2023-05-10T05:38:04;26.00;;;12.23;;
47259;SDS011;32999;52.412;4.890;2023-05-10T05:43:06;30.58;;;14.38;;
47259;SDS011;32999;52.412;4.890;2023-05-10T05:48:07;27.58;;;12.77;;
47259;SDS011;32999;52.412;4.890;2023-05-10T05:53:10;31.98;;;14.05;;
47259;SDS011;32999;52.412;4.890;2023-05-10T05:58:12;26.70;;;13.48;;
47259;SDS011;32999;52.412;4.890;2023-05-10T06:03:14;25.67;;;12.57;;
47259;SDS011;32999;52.412;4.890;2023-05-10T06:08:17;33.38;;;12.07;;
47259;SDS011;32999;52.412;4.890;2023-05-10T06:13:18;30.70;;;11.80;;
47259;SDS011;32999;52.412;4.890;2023-05-10T06:18:20;26.90;;;11.00;;
47259;SDS011;32999;52.412;4.890;2023-05-10T06:23:23;22.65;;;11.30;;
47259;SDS011;32999;52.412;4.890;2023-05-10T06:28:25;22.63;;;11.67;;
47259;SDS011;32999;52.412;4.890;2023-05-10T06:33:26;26.58;;;10.93;;
47259;SDS011;32999;52.412;4.890;2023-05-10T06:38:29;18.90;;;10.13;;
47259;SDS011;32999;52.412;4.890;2023-05-10T06:43:31;19.98;;;9.90;;
47259;SDS011;32999;52.412;4.890;2023-05-10T06:48:33;16.70;;;9.23;;
47259;SDS011;32999;52.412;4.890;2023-05-10T06:53:36;20.10;;;10.07;;
47259;SDS011;32999;52.412;4.890;2023-05-10T06:58:37;20.15;;;9.30;;
47259;SDS011;32999;52.412;4.890;2023-05-10T07:03:40;19.15;;;9.60;;
47259;SDS011;32999;52.412;4.890;2023-05-10T07:08:43;23.58;;;10.70;;
47259;SDS011;32999;52.412;4.890;2023-05-10T07:13:44;17.25;;;10.25;;
47259;SDS011;32999;52.412;4.890;2023-05-10T07:18:46;20.30;;;11.35;;
47259;SDS011;32999;52.412;4.890;2023-05-10T07:23:50;21.73;;;11.20;;
47259;SDS011;32999;52.412;4.890;2023-05-10T07:28:51;21.80;;;11.80;;
47259;SDS011;32999;52.412;4.890;2023-05-10T07:33:53;21.48;;;11.68;;
47259;SDS011;32999;52.412;4.890;2023-05-10T07:38:59;18.80;;;12.50;;
47259;SDS011;32999;52.412;4.890;2023-05-10T07:44:07;20.33;;;12.18;;
47259;SDS011;32999;52.412;4.890;2023-05-10T07:49:08;16.10;;;10.40;;
47259;SDS011;32999;52.412;4.890;2023-05-10T07:54:11;16.15;;;8.98;;
47259;SDS011;32999;52.412;4.890;2023-05-10T07:59:14;15.32;;;7.22;;
47259;SDS011;32999;52.412;4.890;2023-05-10T08:04:16;14.35;;;7.57;;
47259;SDS011;32999;52.412;4.890;2023-05-10T08:09:19;11.00;;;7.22;;
47259;SDS011;32999;52.412;4.890;2023-05-10T08:14:23;13.30;;;8.38;;
47259;SDS011;32999;52.412;4.890;2023-05-10T08:19:25;12.63;;;8.07;;
47259;SDS011;32999;52.412;4.890;2023-05-10T08:24:28;12.88;;;7.72;;
47259;SDS011;32999;52.412;4.890;2023-05-10T08:29:29;11.55;;;7.25;;
47259;SDS011;32999;52.412;4.890;2023-05-10T08:34:31;11.65;;;6.75;;
47259;SDS011;32999;52.412;4.890;2023-05-10T08:39:35;9.95;;;6.50;;
47259;SDS011;32999;52.412;4.890;2023-05-10T08:44:37;10.00;;;5.65;;
47259;SDS011;32999;52.412;4.890;2023-05-10T08:49:41;6.63;;;5.38;;
47259;SDS011;32999;52.412;4.890;2023-05-10T08:54:45;8.57;;;5.65;;
47259;SDS011;32999;52.412;4.890;2023-05-10T08:59:47;11.17;;;6.50;;
47259;SDS011;32999;52.412;4.890;2023-05-10T09:04:49;9.80;;;7.43;;
47259;SDS011;32999;52.412;4.890;2023-05-10T09:09:51;7.32;;;5.57;;
47259;SDS011;32999;52.412;4.890;2023-05-10T09:14:53;8.25;;;5.47;;
47259;SDS011;32999;52.412;4.890;2023-05-10T09:20:01;5.68;;;4.60;;
47259;SDS011;32999;52.412;4.890;2023-05-10T09:25:06;9.40;;;4.63;;
47259;SDS011;32999;52.412;4.890;2023-05-10T09:30:22;7.10;;;4.57;;
47259;SDS011;32999;52.412;4.890;2023-05-10T09:35:25;8.38;;;4.07;;
47259;SDS011;32999;52.412;4.890;2023-05-10T09:40:29;8.05;;;4.13;;
47259;SDS011;32999;52.412;4.890;2023-05-10T09:45:37;6.95;;;4.05;;
47259;SDS011;32999;52.412;4.890;2023-05-10T09:50:45;8.02;;;3.80;;
47259;SDS011;32999;52.412;4.890;2023-05-10T09:55:58;9.23;;;3.60;;
47259;SDS011;32999;52.412;4.890;2023-05-10T10:01:00;7.35;;;3.47;;
47259;SDS011;32999;52.412;4.890;2023-05-10T10:06:02;10.45;;;4.25;;
47259;SDS011;32999;52.412;4.890;2023-05-10T10:11:05;6.65;;;4.53;;
47259;SDS011;32999;52.412;4.890;2023-05-10T10:16:07;5.65;;;3.53;;
47259;SDS011;32999;52.412;4.890;2023-05-10T10:21:09;6.10;;;3.05;;
47259;SDS011;32999;52.412;4.890;2023-05-10T10:26:12;9.98;;;4.30;;
47259;SDS011;32999;52.412;4.890;2023-05-10T10:31:15;6.35;;;3.10;;
47259;SDS011;32999;52.412;4.890;2023-05-10T10:36:19;4.45;;;3.47;;
47259;SDS011;32999;52.412;4.890;2023-05-10T10:41:28;8.00;;;4.10;;
47259;SDS011;32999;52.412;4.890;2023-05-10T10:46:30;7.05;;;3.42;;
47259;SDS011;32999;52.412;4.890;2023-05-10T10:51:31;4.20;;;1.85;;
47259;SDS011;32999;52.412;4.890;2023-05-10T10:56:34;6.40;;;3.35;;
47259;SDS011;32999;52.412;4.890;2023-05-10T11:01:36;10.60;;;5.88;;
47259;SDS011;32999;52.412;4.890;2023-05-10T11:06:37;10.63;;;6.15;;
47259;SDS011;32999;52.412;4.890;2023-05-10T11:11:52;9.95;;;5.10;;
47259;SDS011;32999;52.412;4.890;2023-05-10T11:16:54;11.25;;;5.80;;
47259;SDS011;32999;52.412;4.890;2023-05-10T11:22:11;9.88;;;5.82;;
47259;SDS011;32999;52.412;4.890;2023-05-10T11:27:14;11.65;;;6.07;;
47259;SDS011;32999;52.412;4.890;2023-05-10T11:32:16;11.90;;;5.75;;
47259;SDS011;32999;52.412;4.890;2023-05-10T11:37:17;10.95;;;5.75;;
47259;SDS011;32999;52.412;4.890;2023-05-10T11:42:21;13.93;;;7.20;;
47259;SDS011;32999;52.412;4.890;2023-05-10T11:47:23;10.90;;;6.00;;
47259;SDS011;32999;52.412;4.890;2023-05-10T11:52:24;16.00;;;6.15;;
47259;SDS011;32999;52.412;4.890;2023-05-10T11:57:27;10.68;;;5.25;;
47259;SDS011;32999;52.412;4.890;2023-05-10T12:02:30;15.48;;;5.97;;
47259;SDS011;32999;52.412;4.890;2023-05-10T12:07:31;11.90;;;6.47;;
47259;SDS011;32999;52.412;4.890;2023-05-10T12:12:41;9.93;;;4.85;;
47259;SDS011;32999;52.412;4.890;2023-05-10T12:17:45;12.82;;;6.18;;
47259;SDS011;32999;52.412;4.890;2023-05-10T12:22:49;8.68;;;4.20;;
47259;SDS011;32999;52.412;4.890;2023-05-10T12:27:53;5.30;;;3.53;;
47259;SDS011;32999;52.412;4.890;2023-05-10T12:32:59;4.60;;;3.13;;
47259;SDS011;32999;52.412;4.890;2023-05-10T12:38:01;7.60;;;4.10;;
47259;SDS011;32999;52.412;4.890;2023-05-10T12:43:23;4.97;;;3.38;;
47259;SDS011;32999;52.412;4.890;2023-05-10T12:48:25;5.68;;;3.20;;
47259;SDS011;32999;52.412;4.890;2023-05-10T12:53:28;5.20;;;3.33;;
47259;SDS011;32999;52.412;4.890;2023-05-10T12:58:31;2.75;;;2.05;;
47259;SDS011;32999;52.412;4.890;2023-05-10T13:03:33;4.60;;;1.88;;
47259;SDS011;32999;52.412;4.890;2023-05-10T13:08:34;5.57;;;3.28;;
47259;SDS011;32999;52.412;4.890;2023-05-10T13:13:37;6.85;;;3.42;;
47259;SDS011;32999;52.412;4.890;2023-05-10T13:18:39;5.72;;;3.22;;
47259;SDS011;32999;52.412;4.890;2023-05-10T13:23:40;4.47;;;3.03;;
47259;SDS011;32999;52.412;4.890;2023-05-10T13:28:43;5.85;;;3.85;;
47259;SDS011;32999;52.412;4.890;2023-05-10T13:38:47;8.13;;;4.22;;
47259;SDS011;32999;52.412;4.890;2023-05-10T13:43:50;10.57;;;5.63;;
47259;SDS011;32999;52.412;4.890;2023-05-10T13:48:51;6.53;;;4.13;;
47259;SDS011;32999;52.412;4.890;2023-05-10T13:53:52;7.70;;;4.10;;
47259;SDS011;32999;52.412;4.890;2023-05-10T13:58:55;7.57;;;4.15;;
47259;SDS011;32999;52.412;4.890;2023-05-10T14:03:57;7.05;;;3.90;;
47259;SDS011;32999;52.412;4.890;2023-05-10T14:08:58;7.80;;;4.03;;
47259;SDS011;32999;52.412;4.890;2023-05-10T14:14:01;9.32;;;5.30;;
47259;SDS011;32999;52.412;4.890;2023-05-10T14:19:03;11.37;;;5.57;;
47259;SDS011;32999;52.412;4.890;2023-05-10T14:24:05;7.90;;;4.60;;
47259;SDS011;32999;52.412;4.890;2023-05-10T14:29:08;7.57;;;3.30;;
47259;SDS011;32999;52.412;4.890;2023-05-10T14:34:10;8.07;;;3.70;;
47259;SDS011;32999;52.412;4.890;2023-05-10T14:39:11;8.00;;;4.95;;
47259;SDS011;32999;52.412;4.890;2023-05-10T14:44:15;6.55;;;3.65;;
47259;SDS011;32999;52.412;4.890;2023-05-10T14:49:16;8.63;;;4.50;;
47259;SDS011;32999;52.412;4.890;2023-05-10T14:54:17;7.75;;;4.32;;
47259;SDS011;32999;52.412;4.890;2023-05-10T14:59:21;9.52;;;4.80;;
47259;SDS011;32999;52.412;4.890;2023-05-10T15:04:23;8.40;;;3.90;;
47259;SDS011;32999;52.412;4.890;2023-05-10T15:09:24;7.45;;;3.83;;
47259;SDS011;32999;52.412;4.890;2023-05-10T15:14:27;6.30;;;3.50;;
47259;SDS011;32999;52.412;4.890;2023-05-10T15:19:29;5.22;;;2.22;;
47259;SDS011;32999;52.412;4.890;2023-05-10T15:24:30;4.82;;;3.38;;
47259;SDS011;32999;52.412;4.890;2023-05-10T15:29:33;5.25;;;2.75;;
47259;SDS011;32999;52.412;4.890;2023-05-10T15:34:35;4.22;;;2.08;;
47259;SDS011;32999;52.412;4.890;2023-05-10T15:39:37;6.28;;;2.65;;
47259;SDS011;32999;52.412;4.890;2023-05-10T15:44:40;4.47;;;2.38;;
47259;SDS011;32999;52.412;4.890;2023-05-10T15:49:43;4.07;;;1.90;;
47259;SDS011;32999;52.412;4.890;2023-05-10T15:54:45;4.10;;;2.13;;
47259;SDS011;32999;52.412;4.890;2023-05-10T15:59:48;3.22;;;1.95;;
47259;SDS011;32999;52.412;4.890;2023-05-10T16:05:07;3.13;;;2.10;;
47259;SDS011;32999;52.412;4.890;2023-05-10T16:10:09;4.68;;;2.40;;
47259;SDS011;32999;52.412;4.890;2023-05-10T16:15:12;3.92;;;2.53;;
47259;SDS011;32999;52.412;4.890;2023-05-10T16:20:13;4.97;;;2.28;;
47259;SDS011;32999;52.412;4.890;2023-05-10T16:25:15;5.40;;;2.70;;
47259;SDS011;32999;52.412;4.890;2023-05-10T16:30:18;4.45;;;2.78;;
47259;SDS011;32999;52.412;4.890;2023-05-10T16:35:20;8.10;;;4.03;;
47259;SDS011;32999;52.412;4.890;2023-05-10T16:40:22;7.68;;;3.80;;
47259;SDS011;32999;52.412;4.890;2023-05-10T16:45:25;9.57;;;5.00;;
47259;SDS011;32999;52.412;4.890;2023-05-10T16:50:26;10.60;;;5.53;;
47259;SDS011;32999;52.412;4.890;2023-05-10T16:55:28;11.82;;;6.32;;
47259;SDS011;32999;52.412;4.890;2023-05-10T17:00:31;14.52;;;7.30;;
47259;SDS011;32999;52.412;4.890;2023-05-10T17:05:32;12.65;;;7.38;;
47259;SDS011;32999;52.412;4.890;2023-05-10T17:10:34;14.63;;;8.60;;
47259;SDS011;32999;52.412;4.890;2023-05-10T17:20:55;10.45;;;6.05;;
47259;SDS011;32999;52.412;4.890;2023-05-10T17:25:56;13.07;;;6.88;;
47259;SDS011;32999;52.412;4.890;2023-05-10T17:30:58;14.90;;;7.55;;
47259;SDS011;32999;52.412;4.890;2023-05-10T17:36:01;14.88;;;8.38;;
47259;SDS011;32999;52.412;4.890;2023-05-10T17:41:07;14.70;;;9.10;;
47259;SDS011;32999;52.412;4.890;2023-05-10T17:46:09;18.58;;;8.73;;
47259;SDS011;32999;52.412;4.890;2023-05-10T17:51:13;22.27;;;9.32;;
47259;SDS011;32999;52.412;4.890;2023-05-10T17:56:16;21.60;;;10.98;;
47259;SDS011;32999;52.412;4.890;2023-05-10T18:01:17;20.90;;;11.63;;
47259;SDS011;32999;52.412;4.890;2023-05-10T18:06:20;18.88;;;11.23;;
47259;SDS011;32999;52.412;4.890;2023-05-10T18:11:22;24.98;;;11.75;;
47259;SDS011;32999;52.412;4.890;2023-05-10T18:16:24;24.58;;;11.88;;
47259;SDS011;32999;52.412;4.890;2023-05-10T18:21:26;21.63;;;11.80;;
47259;SDS011;32999;52.412;4.890;2023-05-10T18:26:28;22.75;;;12.02;;
47259;SDS011;32999;52.412;4.890;2023-05-10T18:31:31;19.77;;;11.05;;
47259;SDS011;32999;52.412;4.890;2023-05-10T18:36:36;20.30;;;11.90;;
47259;SDS011;32999;52.412;4.890;2023-05-10T18:41:37;18.92;;;11.30;;
47259;SDS011;32999;52.412;4.890;2023-05-10T18:46:39;20.13;;;10.02;;
47259;SDS011;32999;52.412;4.890;2023-05-10T18:51:42;18.73;;;10.10;;
47259;SDS011;32999;52.412;4.890;2023-05-10T18:56:47;20.67;;;10.75;;
47259;SDS011;32999;52.412;4.890;2023-05-10T19:01:49;20.80;;;10.30;;
47259;SDS011;32999;52.412;4.890;2023-05-10T19:06:52;21.70;;;12.05;;
47259;SDS011;32999;52.412;4.890;2023-05-10T19:11:54;25.92;;;12.80;;
47259;SDS011;32999;52.412;4.890;2023-05-10T19:16:56;27.73;;;13.75;;
47259;SDS011;32999;52.412;4.890;2023-05-10T19:21:59;27.38;;;12.05;;
47259;SDS011;32999;52.412;4.890;2023-05-10T19:27:00;24.98;;;12.88;;
47259;SDS011;32999;52.412;4.890;2023-05-10T19:32:02;21.17;;;11.98;;
47259;SDS011;32999;52.412;4.890;2023-05-10T19:37:05;23.52;;;13.13;;
47259;SDS011;32999;52.412;4.890;2023-05-10T19:42:07;23.30;;;12.32;;
47259;SDS011;32999;52.412;4.890;2023-05-10T19:47:09;27.35;;;14.02;;
47259;SDS011;32999;52.412;4.890;2023-05-10T19:52:12;29.73;;;14.88;;
47259;SDS011;32999;52.412;4.890;2023-05-10T19:57:14;26.27;;;13.52;;
47259;SDS011;32999;52.412;4.890;2023-05-10T20:02:15;24.90;;;12.68;;
47259;SDS011;32999;52.412;4.890;2023-05-10T20:07:19;23.70;;;13.55;;
47259;SDS011;32999;52.412;4.890;2023-05-10T20:12:20;29.98;;;15.32;;
47259;SDS011;32999;52.412;4.890;2023-05-10T20:17:22;27.02;;;14.35;;
47259;SDS011;32999;52.412;4.890;2023-05-10T20:22:25;30.83;;;14.05;;
47259;SDS011;32999;52.412;4.890;2023-05-10T20:27:27;33.35;;;15.15;;
47259;SDS011;32999;52.412;4.890;2023-05-10T20:32:28;29.45;;;14.68;;
47259;SDS011;32999;52.412;4.890;2023-05-10T20:37:31;29.38;;;14.02;;
47259;SDS011;32999;52.412;4.890;2023-05-10T20:42:32;31.77;;;14.85;;
47259;SDS011;32999;52.412;4.890;2023-05-10T20:47:34;26.20;;;13.63;;
47259;SDS011;32999;52.412;4.890;2023-05-10T20:52:37;29.35;;;13.80;;
47259;SDS011;32999;52.412;4.890;2023-05-10T20:57:38;26.75;;;13.30;;
47259;SDS011;32999;52.412;4.890;2023-05-10T21:02:41;24.73;;;13.02;;
47259;SDS011;32999;52.412;4.890;2023-05-10T21:07:44;27.25;;;12.75;;
47259;SDS011;32999;52.412;4.890;2023-05-10T21:12:46;35.00;;;13.30;;
47259;SDS011;32999;52.412;4.890;2023-05-10T21:17:47;24.05;;;12.90;;
47259;SDS011;32999;52.412;4.890;2023-05-10T21:22:51;25.55;;;14.13;;
47259;SDS011;32999;52.412;4.890;2023-05-10T21:27:53;27.90;;;13.03;;
47259;SDS011;32999;52.412;4.890;2023-05-10T21:32:55;23.83;;;13.30;;
47259;SDS011;32999;52.412;4.890;2023-05-10T21:37:59;27.17;;;14.23;;
47259;SDS011;32999;52.412;4.890;2023-05-10T21:43:01;21.23;;;11.25;;
47259;SDS011;32999;52.412;4.890;2023-05-10T21:48:03;21.30;;;12.10;;
47259;SDS011;32999;52.412;4.890;2023-05-10T21:53:07;18.08;;;11.13;;
47259;SDS011;32999;52.412;4.890;2023-05-10T21:58:19;11.35;;;7.18;;
47259;SDS011;32999;52.412;4.890;2023-05-10T22:03:21;10.63;;;6.47;;
47259;SDS011;32999;52.412;4.890;2023-05-10T22:08:24;12.07;;;7.18;;
47259;SDS011;32999;52.412;4.890;2023-05-10T22:13:26;11.25;;;6.78;;
47259;SDS011;32999;52.412;4.890;2023-05-10T22:18:27;12.02;;;7.90;;
47259;SDS011;32999;52.412;4.890;2023-05-10T22:23:30;11.02;;;7.30;;
47259;SDS011;32999;52.412;4.890;2023-05-10T22:28:32;13.75;;;8.05;;
47259;SDS011;32999;52.412;4.890;2023-05-10T22:33:33;11.23;;;7.28;;
47259;SDS011;32999;52.412;4.890;2023-05-10T22:38:36;16.00;;;8.45;;
47259;SDS011;32999;52.412;4.890;2023-05-10T22:43:38;14.40;;;8.55;;
47259;SDS011;32999;52.412;4.890;2023-05-10T22:48:39;14.70;;;8.82;;
47259;SDS011;32999;52.412;4.890;2023-05-10T22:53:43;16.35;;;8.85;;
47259;SDS011;32999;52.412;4.890;2023-05-10T22:58:45;16.80;;;10.38;;
47259;SDS011;32999;52.412;4.890;2023-05-10T23:03:46;16.08;;;9.60;;
47259;SDS011;32999;52.412;4.890;2023-05-10T23:08:49;16.35;;;9.68;;
47259;SDS011;32999;52.412;4.890;2023-05-10T23:13:51;19.60;;;10.77;;
47259;SDS011;32999;52.412;4.890;2023-05-10T23:18:52;15.85;;;9.57;;
47259;SDS011;32999;52.412;4.890;2023-05-10T23:23:55;15.68;;;9.27;;
47259;SDS011;32999;52.412;4.890;2023-05-10T23:28:56;13.13;;;8.25;;
47259;SDS011;32999;52.412;4.890;2023-05-10T23:33:59;15.57;;;8.90;;
47259;SDS011;32999;52.412;4.890;2023-05-10T23:39:02;15.23;;;9.68;;
47259;SDS011;32999;52.412;4.890;2023-05-10T23:44:04;20.00;;;9.38;;
47259;SDS011;32999;52.412;4.890;2023-05-10T23:49:06;19.08;;;8.98;;
47259;SDS011;32999;52.412;4.890;2023-05-10T23:54:08;20.70;;;10.82;;
47259;SDS011;32999;52.412;4.890;2023-05-10T23:59:10;17.05;;;9.48;;
